Terminal Aerodrome Forecast
Issued by NWS

Home | Current Version | Previous Version | Text Only | Print | Product List | Glossary On
Versions: 1 2 3 4 5 6 7 8 9 10 11 12 13 14 15 16 17 18 19 20 21 22 23
000
FTUS43 KDLH 191300 AAA
TAFBRD
TAF AMD
KBRD 191355Z 1914/2012 19014G24KT 6SM BR VCSH BKN015 OVC050
      TEMPO 1914/1918 5SM -TSRA SCT015CB OVC030
     FM191800 20010G20KT P6SM VCSH OVC025
     FM192200 22008KT P6SM BKN035
     FM200200 VRB05KT 5SM BR SCT010=

USA.gov is the U.S. government's official web portal to all federal, state and local government web resources and services.